sensor_id;sensor_type;location;lat;lon;timestamp;pressure;altitude;pressure_sealevel;temperature;humidity
81628;BME280;71036;51.102;6.514;2024-01-16T12:10:21;100203.59;;;3.97;66.96
81628;BME280;71036;51.102;6.514;2024-01-16T12:12:48;100191.75;;;4.91;63.67
81628;BME280;71036;51.102;6.514;2024-01-16T12:15:17;100186.00;;;5.53;61.63
81628;BME280;71036;51.102;6.514;2024-01-16T12:17:56;100187.38;;;5.04;61.35
81628;BME280;71036;51.102;6.514;2024-01-16T12:20:23;100183.31;;;4.98;62.30
81628;BME280;71036;51.102;6.514;2024-01-16T12:22:59;100174.91;;;5.19;61.94
81628;BME280;71036;51.102;6.514;2024-01-16T12:25:25;100166.91;;;4.76;61.38
81628;BME280;71036;51.102;6.514;2024-01-16T12:28:01;100161.75;;;4.59;63.14
81628;BME280;71036;51.102;6.514;2024-01-16T12:30:29;100163.56;;;4.59;62.32
81628;BME280;71036;51.102;6.514;2024-01-16T12:33:04;100171.47;;;4.88;63.17
81628;BME280;71036;51.102;6.514;2024-01-16T12:35:35;100162.34;;;5.21;61.99
81628;BME280;71036;51.102;6.514;2024-01-16T12:38:01;100162.09;;;5.52;60.76
81628;BME280;71036;51.102;6.514;2024-01-16T12:40:28;100161.72;;;5.44;59.55
81628;BME280;71036;51.102;6.514;2024-01-16T12:42:53;100156.53;;;4.14;62.65
81628;BME280;71036;51.102;6.514;2024-01-16T12:45:19;100150.50;;;3.96;64.47
81628;BME280;71036;51.102;6.514;2024-01-16T12:47:50;100145.59;;;4.18;64.03
81628;BME280;71036;51.102;6.514;2024-01-16T12:50:22;100146.47;;;4.77;62.54
81628;BME280;71036;51.102;6.514;2024-01-16T12:52:49;100149.50;;;4.85;62.04
81628;BME280;71036;51.102;6.514;2024-01-16T12:55:16;100147.06;;;4.96;60.96
81628;BME280;71036;51.102;6.514;2024-01-16T12:57:42;100148.56;;;4.72;61.00
81628;BME280;71036;51.102;6.514;2024-01-16T13:00:21;100148.72;;;3.81;64.50
81628;BME280;71036;51.102;6.514;2024-01-16T13:02:51;100137.94;;;3.98;64.57
81628;BME280;71036;51.102;6.514;2024-01-16T13:05:18;100141.19;;;4.03;63.23
81628;BME280;71036;51.102;6.514;2024-01-16T13:07:44;100135.53;;;4.23;64.08
81628;BME280;71036;51.102;6.514;2024-01-16T13:10:12;100139.19;;;4.36;64.66
81628;BME280;71036;51.102;6.514;2024-01-16T13:12:41;100153.97;;;3.67;65.93
81628;BME280;71036;51.102;6.514;2024-01-16T13:15:07;100137.22;;;2.54;67.97
81628;BME280;71036;51.102;6.514;2024-01-16T13:17:33;100143.50;;;2.68;71.30
81628;BME280;71036;51.102;6.514;2024-01-16T13:19:59;100145.81;;;2.42;71.39
81628;BME280;71036;51.102;6.514;2024-01-16T13:22:24;100149.88;;;2.14;72.34
81628;BME280;71036;51.102;6.514;2024-01-16T13:24:50;100144.91;;;2.25;72.75
81628;BME280;71036;51.102;6.514;2024-01-16T13:27:15;100154.72;;;2.06;73.48
81628;BME280;71036;51.102;6.514;2024-01-16T13:29:40;100139.88;;;1.85;74.80
81628;BME280;71036;51.102;6.514;2024-01-16T13:32:06;100134.81;;;1.81;75.40
81628;BME280;71036;51.102;6.514;2024-01-16T13:34:32;100133.09;;;1.80;75.98
81628;BME280;71036;51.102;6.514;2024-01-16T13:36:58;100136.56;;;1.82;74.89
81628;BME280;71036;51.102;6.514;2024-01-16T13:39:26;100134.97;;;1.60;74.01
81628;BME280;71036;51.102;6.514;2024-01-16T13:41:52;100137.34;;;1.48;76.22
81628;BME280;71036;51.102;6.514;2024-01-16T13:44:17;100121.44;;;1.48;75.76
81628;BME280;71036;51.102;6.514;2024-01-16T13:46:42;100126.97;;;1.43;76.20
81628;BME280;71036;51.102;6.514;2024-01-16T13:49:08;100122.22;;;1.50;77.20
81628;BME280;71036;51.102;6.514;2024-01-16T13:51:33;100118.19;;;1.60;76.09
81628;BME280;71036;51.102;6.514;2024-01-16T13:53:58;100111.84;;;1.45;74.96
81628;BME280;71036;51.102;6.514;2024-01-16T13:56:24;100108.78;;;1.36;73.91
81628;BME280;71036;51.102;6.514;2024-01-16T13:58:49;100122.22;;;1.50;74.53
81628;BME280;71036;51.102;6.514;2024-01-16T14:01:14;100118.50;;;1.54;74.02
81628;BME280;71036;51.102;6.514;2024-01-16T14:03:39;100115.28;;;1.47;73.92
81628;BME280;71036;51.102;6.514;2024-01-16T14:06:05;100117.31;;;1.42;73.78
81628;BME280;71036;51.102;6.514;2024-01-16T14:08:32;100123.44;;;1.26;73.38
81628;BME280;71036;51.102;6.514;2024-01-16T14:10:58;100110.19;;;1.26;73.84
81628;BME280;71036;51.102;6.514;2024-01-16T14:13:23;100109.75;;;1.35;73.64
81628;BME280;71036;51.102;6.514;2024-01-16T14:15:50;100097.31;;;1.35;74.87
81628;BME280;71036;51.102;6.514;2024-01-16T14:18:15;100099.00;;;1.38;75.57
81628;BME280;71036;51.102;6.514;2024-01-16T14:20:41;100101.22;;;1.28;74.87
81628;BME280;71036;51.102;6.514;2024-01-16T14:23:06;100086.69;;;1.18;74.81
81628;BME280;71036;51.102;6.514;2024-01-16T14:25:31;100085.16;;;1.14;74.18
81628;BME280;71036;51.102;6.514;2024-01-16T14:28:02;100081.78;;;1.10;74.65
81628;BME280;71036;51.102;6.514;2024-01-16T14:30:34;100077.50;;;1.08;73.85
81628;BME280;71036;51.102;6.514;2024-01-16T14:33:00;100086.34;;;1.07;74.38
81628;BME280;71036;51.102;6.514;2024-01-16T14:35:26;100081.50;;;0.98;74.35
81628;BME280;71036;51.102;6.514;2024-01-16T14:37:51;100084.16;;;0.98;75.93
81628;BME280;71036;51.102;6.514;2024-01-16T14:40:17;100086.34;;;1.07;76.62
81628;BME280;71036;51.102;6.514;2024-01-16T14:42:49;100091.22;;;0.97;75.36
81628;BME280;71036;51.102;6.514;2024-01-16T14:45:16;100073.84;;;0.92;76.20
81628;BME280;71036;51.102;6.514;2024-01-16T14:47:41;100077.06;;;0.98;76.14
81628;BME280;71036;51.102;6.514;2024-01-16T14:50:08;100083.66;;;0.90;75.52
81628;BME280;71036;51.102;6.514;2024-01-16T14:52:34;100068.28;;;0.79;75.13
81628;BME280;71036;51.102;6.514;2024-01-16T14:55:01;100077.06;;;0.80;74.99
81628;BME280;71036;51.102;6.514;2024-01-16T14:57:27;100068.97;;;0.83;74.92
81628;BME280;71036;51.102;6.514;2024-01-16T14:59:55;100057.13;;;0.73;75.63
81628;BME280;71036;51.102;6.514;2024-01-16T15:02:20;100059.19;;;0.66;75.50
81628;BME280;71036;51.102;6.514;2024-01-16T15:04:46;100049.63;;;0.64;76.56
81628;BME280;71036;51.102;6.514;2024-01-16T15:07:11;100055.69;;;0.66;76.37
81628;BME280;71036;51.102;6.514;2024-01-16T15:09:37;100049.03;;;0.57;76.83
81628;BME280;71036;51.102;6.514;2024-01-16T15:12:06;100052.03;;;0.49;76.21
81628;BME280;71036;51.102;6.514;2024-01-16T15:14:34;100054.88;;;0.45;76.86
81628;BME280;71036;51.102;6.514;2024-01-16T15:17:00;100050.47;;;0.45;77.63
81628;BME280;71036;51.102;6.514;2024-01-16T15:19:26;100048.09;;;0.39;78.11
81628;BME280;71036;51.102;6.514;2024-01-16T15:21:51;100053.78;;;0.30;78.27
81628;BME280;71036;51.102;6.514;2024-01-16T15:24:17;100050.00;;;0.17;78.23
81628;BME280;71036;51.102;6.514;2024-01-16T15:26:55;100057.84;;;0.19;77.75
81628;BME280;71036;51.102;6.514;2024-01-16T15:29:22;100060.03;;;0.09;78.24
81628;BME280;71036;51.102;6.514;2024-01-16T15:31:47;100063.03;;;0.02;78.96
81628;BME280;71036;51.102;6.514;2024-01-16T15:34:12;100068.19;;;-0.16;80.62
81628;BME280;71036;51.102;6.514;2024-01-16T15:36:38;100066.69;;;-0.21;80.22
81628;BME280;71036;51.102;6.514;2024-01-16T15:39:03;100069.84;;;-0.33;81.33
81628;BME280;71036;51.102;6.514;2024-01-16T15:41:29;100069.97;;;-0.36;80.90
81628;BME280;71036;51.102;6.514;2024-01-16T15:43:54;100064.94;;;-0.42;81.78
81628;BME280;71036;51.102;6.514;2024-01-16T15:46:20;100066.31;;;-0.54;82.44
81628;BME280;71036;51.102;6.514;2024-01-16T15:48:45;100074.53;;;-0.62;82.21
81628;BME280;71036;51.102;6.514;2024-01-16T15:51:10;100079.34;;;-0.71;83.73
81628;BME280;71036;51.102;6.514;2024-01-16T15:53:36;100076.88;;;-0.76;83.78
81628;BME280;71036;51.102;6.514;2024-01-16T15:56:02;100084.88;;;-0.77;84.36
81628;BME280;71036;51.102;6.514;2024-01-16T15:58:30;100083.28;;;-0.81;83.90
81628;BME280;71036;51.102;6.514;2024-01-16T16:00:57;100086.97;;;-0.85;83.99
81628;BME280;71036;51.102;6.514;2024-01-16T16:03:22;100093.28;;;-0.89;84.24
81628;BME280;71036;51.102;6.514;2024-01-16T16:05:47;100090.81;;;-0.94;84.71
81628;BME280;71036;51.102;6.514;2024-01-16T16:08:13;100090.34;;;-1.03;84.90
81628;BME280;71036;51.102;6.514;2024-01-16T16:10:38;100089.63;;;-1.08;86.03
81628;BME280;71036;51.102;6.514;2024-01-16T16:13:06;100092.34;;;-1.10;85.46
81628;BME280;71036;51.102;6.514;2024-01-16T16:15:32;100085.22;;;-1.08;85.97
81628;BME280;71036;51.102;6.514;2024-01-16T16:17:57;100091.69;;;-1.15;86.15
81628;BME280;71036;51.102;6.514;2024-01-16T16:20:23;100089.94;;;-1.16;86.73
81628;BME280;71036;51.102;6.514;2024-01-16T16:22:49;100099.06;;;-1.25;86.45
81628;BME280;71036;51.102;6.514;2024-01-16T16:25:16;100096.00;;;-1.36;87.53
81628;BME280;71036;51.102;6.514;2024-01-16T16:27:41;100096.09;;;-1.39;88.06
81628;BME280;71036;51.102;6.514;2024-01-16T16:30:07;100109.19;;;-1.36;88.86
81628;BME280;71036;51.102;6.514;2024-01-16T16:32:32;100109.56;;;-1.46;88.74
81628;BME280;71036;51.102;6.514;2024-01-16T16:34:58;100105.34;;;-1.50;89.23
81628;BME280;71036;51.102;6.514;2024-01-16T16:37:23;100113.13;;;-1.47;88.83
81628;BME280;71036;51.102;6.514;2024-01-16T16:39:48;100105.72;;;-1.61;89.37
81628;BME280;71036;51.102;6.514;2024-01-16T16:42:13;100111.00;;;-1.61;89.80
81628;BME280;71036;51.102;6.514;2024-01-16T16:44:40;100107.50;;;-1.61;89.88
81628;BME280;71036;51.102;6.514;2024-01-16T16:47:05;100108.25;;;-1.58;90.10
81628;BME280;71036;51.102;6.514;2024-01-16T16:49:30;100105.50;;;-1.55;90.21
81628;BME280;71036;51.102;6.514;2024-01-16T16:51:55;100100.28;;;-1.56;90.39
81628;BME280;71036;51.102;6.514;2024-01-16T16:54:21;100091.69;;;-1.61;90.36
81628;BME280;71036;51.102;6.514;2024-01-16T16:56:46;100090.34;;;-1.73;91.04
81628;BME280;71036;51.102;6.514;2024-01-16T16:59:11;100089.66;;;-1.78;91.62
81628;BME280;71036;51.102;6.514;2024-01-16T17:01:37;100085.44;;;-1.82;91.76
81628;BME280;71036;51.102;6.514;2024-01-16T17:04:04;100085.53;;;-1.85;92.48
81628;BME280;71036;51.102;6.514;2024-01-16T17:06:29;100094.13;;;-1.80;92.01
81628;BME280;71036;51.102;6.514;2024-01-16T17:08:54;100093.09;;;-1.76;92.17
81628;BME280;71036;51.102;6.514;2024-01-16T17:11:20;100093.81;;;-1.71;91.77
81628;BME280;71036;51.102;6.514;2024-01-16T17:13:45;100085.06;;;-1.73;91.71
81628;BME280;71036;51.102;6.514;2024-01-16T17:16:11;100082.69;;;-1.79;91.52
81628;BME280;71036;51.102;6.514;2024-01-16T17:18:37;100080.63;;;-1.71;91.26
81628;BME280;71036;51.102;6.514;2024-01-16T17:21:05;100071.91;;;-1.73;91.28
81628;BME280;71036;51.102;6.514;2024-01-16T17:23:31;100068.47;;;-1.75;91.70
81628;BME280;71036;51.102;6.514;2024-01-16T17:25:58;100060.84;;;-1.83;92.06
81628;BME280;71036;51.102;6.514;2024-01-16T17:28:24;100060.09;;;-1.86;92.46
81628;BME280;71036;51.102;6.514;2024-01-16T17:30:50;100048.88;;;-1.91;93.00
81628;BME280;71036;51.102;6.514;2024-01-16T17:33:16;100053.28;;;-1.92;92.72
81628;BME280;71036;51.102;6.514;2024-01-16T17:35:41;100055.22;;;-1.97;93.72
81628;BME280;71036;51.102;6.514;2024-01-16T17:38:07;100052.84;;;-2.04;94.63
81628;BME280;71036;51.102;6.514;2024-01-16T17:40:33;100059.97;;;-2.06;94.50
81628;BME280;71036;51.102;6.514;2024-01-16T17:42:59;100051.22;;;-2.08;95.00
81628;BME280;71036;51.102;6.514;2024-01-16T17:45:24;100052.91;;;-2.06;95.23
81628;BME280;71036;51.102;6.514;2024-01-16T17:47:49;100048.56;;;-2.07;95.80
81628;BME280;71036;51.102;6.514;2024-01-16T17:50:15;100049.63;;;-2.12;95.92
81628;BME280;71036;51.102;6.514;2024-01-16T17:52:41;100048.00;;;-2.16;96.63
81628;BME280;71036;51.102;6.514;2024-01-16T17:55:06;100042.00;;;-2.20;97.17
81628;BME280;71036;51.102;6.514;2024-01-16T17:57:33;100041.06;;;-2.17;97.37
81628;BME280;71036;51.102;6.514;2024-01-16T17:59:59;100035.16;;;-2.26;97.73
81628;BME280;71036;51.102;6.514;2024-01-16T18:02:24;100025.69;;;-2.30;98.28
81628;BME280;71036;51.102;6.514;2024-01-16T18:04:50;100033.50;;;-2.28;98.45
81628;BME280;71036;51.102;6.514;2024-01-16T18:07:16;100016.84;;;-2.29;98.53
81628;BME280;71036;51.102;6.514;2024-01-16T18:09:42;100018.41;;;-2.23;98.44
81628;BME280;71036;51.102;6.514;2024-01-16T18:12:08;100015.75;;;-2.23;98.19
81628;BME280;71036;51.102;6.514;2024-01-16T18:14:36;100009.66;;;-2.23;98.41
81628;BME280;71036;51.102;6.514;2024-01-16T18:17:04;100013.28;;;-2.26;98.29
81628;BME280;71036;51.102;6.514;2024-01-16T18:19:30;100014.53;;;-2.38;99.19
81628;BME280;71036;51.102;6.514;2024-01-16T18:21:58;100021.72;;;-2.41;99.71
81628;BME280;71036;51.102;6.514;2024-01-16T18:24:25;100012.97;;;-2.43;99.67
81628;BME280;71036;51.102;6.514;2024-01-16T18:26:51;100015.47;;;-2.39;99.65
81628;BME280;71036;51.102;6.514;2024-01-16T18:29:16;100007.72;;;-2.43;99.15
81628;BME280;71036;51.102;6.514;2024-01-16T18:31:45;100006.97;;;-2.47;98.83
81628;BME280;71036;51.102;6.514;2024-01-16T18:34:10;100010.56;;;-2.49;99.12
81628;BME280;71036;51.102;6.514;2024-01-16T18:36:39;100001.41;;;-2.64;99.58
81628;BME280;71036;51.102;6.514;2024-01-16T18:39:04;100000.53;;;-2.63;99.95
81628;BME280;71036;51.102;6.514;2024-01-16T18:41:37;99993.53;;;-2.64;99.69
81628;BME280;71036;51.102;6.514;2024-01-16T18:44:03;99990.66;;;-2.56;99.74
81628;BME280;71036;51.102;6.514;2024-01-16T18:46:31;99982.38;;;-2.46;99.18
81628;BME280;71036;51.102;6.514;2024-01-16T18:48:58;99976.13;;;-2.43;97.99
81628;BME280;71036;51.102;6.514;2024-01-16T18:51:24;99974.13;;;-2.37;97.66
81628;BME280;71036;51.102;6.514;2024-01-16T18:53:50;99976.84;;;-2.38;97.35
81628;BME280;71036;51.102;6.514;2024-01-16T18:56:15;99975.28;;;-2.44;97.77
81628;BME280;71036;51.102;6.514;2024-01-16T18:58:40;99967.50;;;-2.47;97.87
81628;BME280;71036;51.102;6.514;2024-01-16T19:01:06;99958.13;;;-2.55;98.03
81628;BME280;71036;51.102;6.514;2024-01-16T19:03:32;99972.16;;;-2.55;98.13
81628;BME280;71036;51.102;6.514;2024-01-16T19:05:59;99954.13;;;-2.65;98.66
81628;BME280;71036;51.102;6.514;2024-01-16T19:08:25;99956.66;;;-2.62;98.85
81628;BME280;71036;51.102;6.514;2024-01-16T19:10:50;99958.84;;;-2.75;98.88
81628;BME280;71036;51.102;6.514;2024-01-16T19:13:16;99962.97;;;-2.68;99.21
81628;BME280;71036;51.102;6.514;2024-01-16T19:15:41;99978.78;;;-2.68;99.98
81628;BME280;71036;51.102;6.514;2024-01-16T19:18:07;99980.91;;;-2.79;100.00
81628;BME280;71036;51.102;6.514;2024-01-16T19:20:32;99973.97;;;-2.82;100.00
81628;BME280;71036;51.102;6.514;2024-01-16T19:22:57;99971.34;;;-2.82;100.00
81628;BME280;71036;51.102;6.514;2024-01-16T19:25:23;99967.91;;;-2.84;100.00
81628;BME280;71036;51.102;6.514;2024-01-16T19:27:50;99957.28;;;-2.80;100.00
81628;BME280;71036;51.102;6.514;2024-01-16T19:30:16;99963.53;;;-2.85;100.00
81628;BME280;71036;51.102;6.514;2024-01-16T19:32:44;99962.75;;;-2.87;100.00
81628;BME280;71036;51.102;6.514;2024-01-16T19:35:11;99950.38;;;-2.85;100.00
81628;BME280;71036;51.102;6.514;2024-01-16T19:37:37;99949.38;;;-2.80;100.00
81628;BME280;71036;51.102;6.514;2024-01-16T19:40:04;99943.25;;;-2.81;99.65
81628;BME280;71036;51.102;6.514;2024-01-16T19:42:32;99933.78;;;-2.85;99.49
81628;BME280;71036;51.102;6.514;2024-01-16T19:44:58;99933.50;;;-2.77;99.16
81628;BME280;71036;51.102;6.514;2024-01-16T19:47:23;99923.84;;;-2.77;99.05
81628;BME280;71036;51.102;6.514;2024-01-16T19:49:48;99930.00;;;-2.78;99.33
81628;BME280;71036;51.102;6.514;2024-01-16T19:52:13;99924.03;;;-2.83;99.02
81628;BME280;71036;51.102;6.514;2024-01-16T19:54:39;99931.06;;;-2.84;99.07
81628;BME280;71036;51.102;6.514;2024-01-16T19:57:05;99930.41;;;-2.90;99.22
81628;BME280;71036;51.102;6.514;2024-01-16T19:59:31;99922.63;;;-2.93;99.69
81628;BME280;71036;51.102;6.514;2024-01-16T20:01:57;99914.00;;;-2.97;100.00
81628;BME280;71036;51.102;6.514;2024-01-16T20:04:22;99913.03;;;-2.94;99.98
81628;BME280;71036;51.102;6.514;2024-01-16T20:06:47;99908.69;;;-2.95;99.33
81628;BME280;71036;51.102;6.514;2024-01-16T20:09:15;99906.72;;;-2.89;99.47
81628;BME280;71036;51.102;6.514;2024-01-16T20:11:44;99895.44;;;-2.92;99.19
81628;BME280;71036;51.102;6.514;2024-01-16T20:14:11;99899.06;;;-2.96;99.66
81628;BME280;71036;51.102;6.514;2024-01-16T20:16:37;99914.16;;;-3.01;100.00
81628;BME280;71036;51.102;6.514;2024-01-16T20:19:03;99907.88;;;-2.97;99.67
81628;BME280;71036;51.102;6.514;2024-01-16T20:21:30;99910.63;;;-3.00;99.71
81628;BME280;71036;51.102;6.514;2024-01-16T20:23:56;99903.63;;;-3.01;99.55
81628;BME280;71036;51.102;6.514;2024-01-16T20:26:21;99910.63;;;-3.00;99.53
81628;BME280;71036;51.102;6.514;2024-01-16T20:28:46;99906.38;;;-3.04;99.55
81628;BME280;71036;51.102;6.514;2024-01-16T20:31:12;99910.94;;;-3.09;99.58
81628;BME280;71036;51.102;6.514;2024-01-16T20:33:40;99907.41;;;-3.08;99.86
81628;BME280;71036;51.102;6.514;2024-01-16T20:36:09;99906.56;;;-3.10;99.73
81628;BME280;71036;51.102;6.514;2024-01-16T20:38:35;99896.88;;;-3.08;99.79
81628;BME280;71036;51.102;6.514;2024-01-16T20:41:00;99896.75;;;-3.05;99.16
81628;BME280;71036;51.102;6.514;2024-01-16T20:43:26;99900.00;;;-2.97;98.49
81628;BME280;71036;51.102;6.514;2024-01-16T20:45:51;99887.63;;;-2.95;98.28
81628;BME280;71036;51.102;6.514;2024-01-16T20:48:16;99895.50;;;-2.94;97.59
81628;BME280;71036;51.102;6.514;2024-01-16T20:50:42;99882.38;;;-2.95;97.57
81628;BME280;71036;51.102;6.514;2024-01-16T20:53:07;99891.16;;;-2.96;97.71
81628;BME280;71036;51.102;6.514;2024-01-16T20:55:32;99884.31;;;-3.00;97.70
81628;BME280;71036;51.102;6.514;2024-01-16T20:57:59;99879.97;;;-3.01;98.04
81628;BME280;71036;51.102;6.514;2024-01-16T21:00:25;99889.38;;;-2.94;98.19
81628;BME280;71036;51.102;6.514;2024-01-16T21:02:51;99867.13;;;-3.10;97.99
81628;BME280;71036;51.102;6.514;2024-01-16T21:05:16;99874.00;;;-3.06;98.49
81628;BME280;71036;51.102;6.514;2024-01-16T21:07:42;99865.09;;;-3.02;98.20
81628;BME280;71036;51.102;6.514;2024-01-16T21:10:07;99859.72;;;-2.99;97.92
81628;BME280;71036;51.102;6.514;2024-01-16T21:12:33;99853.84;;;-3.06;98.10
81628;BME280;71036;51.102;6.514;2024-01-16T21:14:59;99859.03;;;-3.04;98.08
81628;BME280;71036;51.102;6.514;2024-01-16T21:17:24;99853.75;;;-3.04;97.97
81628;BME280;71036;51.102;6.514;2024-01-16T21:19:49;99850.16;;;-3.02;97.43
81628;BME280;71036;51.102;6.514;2024-01-16T21:22:15;99852.53;;;-2.94;97.52
81628;BME280;71036;51.102;6.514;2024-01-16T21:24:40;99842.34;;;-3.03;97.24
81628;BME280;71036;51.102;6.514;2024-01-16T21:27:05;99840.72;;;-3.07;98.11
81628;BME280;71036;51.102;6.514;2024-01-16T21:29:31;99836.72;;;-3.17;98.33
81628;BME280;71036;51.102;6.514;2024-01-16T21:31:56;99835.88;;;-3.19;98.41
81628;BME280;71036;51.102;6.514;2024-01-16T21:34:22;99825.69;;;-3.28;98.04
81628;BME280;71036;51.102;6.514;2024-01-16T21:36:49;99819.06;;;-3.38;98.76
81628;BME280;71036;51.102;6.514;2024-01-16T21:39:16;99808.63;;;-3.42;98.99
81628;BME280;71036;51.102;6.514;2024-01-16T21:41:41;99809.72;;;-3.47;99.01
81628;BME280;71036;51.102;6.514;2024-01-16T21:44:11;99802.91;;;-3.53;99.42
81628;BME280;71036;51.102;6.514;2024-01-16T21:46:37;99797.69;;;-3.54;99.66
81628;BME280;71036;51.102;6.514;2024-01-16T21:49:03;99793.97;;;-3.49;99.38
81628;BME280;71036;51.102;6.514;2024-01-16T21:51:28;99789.00;;;-3.56;99.51
81628;BME280;71036;51.102;6.514;2024-01-16T21:53:54;99782.19;;;-3.62;99.53
81628;BME280;71036;51.102;6.514;2024-01-16T21:56:20;99771.72;;;-3.63;99.44
81628;BME280;71036;51.102;6.514;2024-01-16T21:58:46;99755.56;;;-3.77;99.82
81628;BME280;71036;51.102;6.514;2024-01-16T22:01:12;99768.81;;;-3.80;100.00
81628;BME280;71036;51.102;6.514;2024-01-16T22:03:37;99758.47;;;-3.85;100.00
81628;BME280;71036;51.102;6.514;2024-01-16T22:06:04;99751.00;;;-3.97;100.00
81628;BME280;71036;51.102;6.514;2024-01-16T22:08:29;99755.50;;;-4.02;100.00
81628;BME280;71036;51.102;6.514;2024-01-16T22:10:54;99755.47;;;-4.01;100.00
81628;BME280;71036;51.102;6.514;2024-01-16T22:13:20;99765.22;;;-4.04;100.00
81628;BME280;71036;51.102;6.514;2024-01-16T22:15:47;99756.44;;;-4.03;100.00
81628;BME280;71036;51.102;6.514;2024-01-16T22:18:13;99775.31;;;-3.92;100.00
81628;BME280;71036;51.102;6.514;2024-01-16T22:20:38;99766.38;;;-3.86;100.00
81628;BME280;71036;51.102;6.514;2024-01-16T22:23:03;99761.88;;;-3.83;100.00
81628;BME280;71036;51.102;6.514;2024-01-16T22:25:28;99752.09;;;-3.78;100.00
81628;BME280;71036;51.102;6.514;2024-01-16T22:27:54;99745.25;;;-3.82;100.00
81628;BME280;71036;51.102;6.514;2024-01-16T22:30:19;99750.59;;;-3.85;100.00
81628;BME280;71036;51.102;6.514;2024-01-16T22:32:44;99738.53;;;-3.90;100.00
81628;BME280;71036;51.102;6.514;2024-01-16T22:35:10;99732.75;;;-4.02;100.00
81628;BME280;71036;51.102;6.514;2024-01-16T22:37:37;99735.47;;;-4.05;100.00
81628;BME280;71036;51.102;6.514;2024-01-16T22:40:07;99734.75;;;-4.08;100.00
81628;BME280;71036;51.102;6.514;2024-01-16T22:42:34;99725.50;;;-4.20;100.00
81628;BME280;71036;51.102;6.514;2024-01-16T22:44:59;99733.69;;;-4.29;100.00
81628;BME280;71036;51.102;6.514;2024-01-16T22:47:24;99741.00;;;-4.40;100.00
81628;BME280;71036;51.102;6.514;2024-01-16T22:49:50;99734.94;;;-4.40;100.00
81628;BME280;71036;51.102;6.514;2024-01-16T22:52:16;99724.44;;;-4.40;100.00
81628;BME280;71036;51.102;6.514;2024-01-16T22:54:41;99719.38;;;-4.46;100.00
81628;BME280;71036;51.102;6.514;2024-01-16T22:57:06;99735.22;;;-4.49;100.00
81628;BME280;71036;51.102;6.514;2024-01-16T22:59:32;99723.16;;;-4.55;100.00
81628;BME280;71036;51.102;6.514;2024-01-16T23:01:57;99722.22;;;-4.54;100.00
81628;BME280;71036;51.102;6.514;2024-01-16T23:04:22;99730.06;;;-4.53;100.00
81628;BME280;71036;51.102;6.514;2024-01-16T23:06:47;99724.91;;;-4.56;100.00
81628;BME280;71036;51.102;6.514;2024-01-16T23:09:13;99730.75;;;-4.47;100.00
81628;BME280;71036;51.102;6.514;2024-01-16T23:11:38;99723.94;;;-4.53;100.00
81628;BME280;71036;51.102;6.514;2024-01-16T23:14:04;99726.59;;;-4.55;100.00
81628;BME280;71036;51.102;6.514;2024-01-16T23:16:29;99718.03;;;-4.60;100.00
81628;BME280;71036;51.102;6.514;2024-01-16T23:18:55;99719.47;;;-4.49;100.00
81628;BME280;71036;51.102;6.514;2024-01-16T23:21:20;99710.75;;;-4.52;100.00
81628;BME280;71036;51.102;6.514;2024-01-16T23:23:47;99700.56;;;-4.61;100.00
81628;BME280;71036;51.102;6.514;2024-01-16T23:26:13;99699.91;;;-4.67;100.00
81628;BME280;71036;51.102;6.514;2024-01-16T23:28:40;99687.78;;;-4.71;100.00
81628;BME280;71036;51.102;6.514;2024-01-16T23:31:06;99673.69;;;-4.67;100.00
81628;BME280;71036;51.102;6.514;2024-01-16T23:33:32;99673.25;;;-4.54;100.00
81628;BME280;71036;51.102;6.514;2024-01-16T23:35:58;99658.94;;;-4.43;100.00
81628;BME280;71036;51.102;6.514;2024-01-16T23:38:24;99636.22;;;-4.44;100.00
81628;BME280;71036;51.102;6.514;2024-01-16T23:40:51;99623.97;;;-4.44;100.00
81628;BME280;71036;51.102;6.514;2024-01-16T23:43:17;99621.16;;;-4.39;100.00
81628;BME280;71036;51.102;6.514;2024-01-16T23:45:44;99619.50;;;-4.42;100.00
81628;BME280;71036;51.102;6.514;2024-01-16T23:48:11;99623.00;;;-4.41;100.00
81628;BME280;71036;51.102;6.514;2024-01-16T23:50:36;99617.94;;;-4.47;100.00
81628;BME280;71036;51.102;6.514;2024-01-16T23:53:03;99615.34;;;-4.49;100.00
81628;BME280;71036;51.102;6.514;2024-01-16T23:55:28;99611.75;;;-4.45;100.00
81628;BME280;71036;51.102;6.514;2024-01-16T23:57:53;99604.03;;;-4.49;100.00
